createdAt,value
2023-03-25T00:00:07.214Z,34.43
2023-03-25T00:02:34.664Z,30.20
2023-03-25T00:05:03.731Z,33.53
2023-03-25T00:07:31.552Z,32.83
2023-03-25T00:09:58.677Z,31.37
2023-03-25T00:12:26.451Z,37.77
2023-03-25T00:14:58.288Z,36.53
2023-03-25T00:17:31.021Z,33.00
2023-03-25T00:20:02.419Z,37.80
2023-03-25T00:22:29.533Z,33.13
2023-03-25T00:24:56.642Z,42.23
2023-03-25T00:27:23.790Z,32.90
2023-03-25T00:29:50.995Z,38.20
2023-03-25T00:32:20.918Z,36.00
2023-03-25T00:34:48.138Z,33.07
2023-03-25T00:37:21.738Z,38.43
2023-03-25T00:39:49.026Z,27.33
2023-03-25T00:42:16.872Z,38.17
2023-03-25T00:44:44.013Z,33.40
2023-03-25T00:47:18.654Z,38.70
2023-03-25T00:49:46.390Z,33.53
2023-03-25T00:52:15.553Z,35.10
2023-03-25T00:54:43.253Z,30.83
2023-03-25T00:57:10.442Z,30.00
2023-03-25T00:59:37.580Z,29.87
2023-03-25T01:02:05.002Z,34.80
2023-03-25T01:04:32.129Z,33.03
2023-03-25T01:07:01.612Z,36.43
2023-03-25T01:09:28.783Z,34.43
2023-03-25T01:11:55.974Z,29.90
2023-03-25T01:14:24.304Z,32.90
2023-03-25T01:16:51.528Z,30.63
2023-03-25T01:19:18.675Z,25.23
2023-03-25T01:21:45.833Z,36.20
2023-03-25T01:24:14.516Z,36.03
2023-03-25T01:26:43.583Z,27.53
2023-03-25T01:29:14.782Z,28.23
2023-03-25T01:31:41.965Z,25.77
2023-03-25T01:34:09.391Z,32.50
2023-03-25T01:36:37.484Z,30.67
2023-03-25T01:39:05.681Z,27.30
2023-03-25T01:41:48.505Z,30.77
2023-03-25T01:44:20.572Z,31.73
2023-03-25T01:46:49.152Z,28.03
2023-03-25T01:49:23.751Z,32.87
2023-03-25T01:51:56.226Z,31.83
2023-03-25T01:54:23.697Z,26.27
2023-03-25T01:56:52.222Z,35.63
2023-03-25T01:59:20.526Z,34.43
2023-03-25T02:01:47.835Z,26.00
2023-03-25T02:04:17.153Z,26.40
2023-03-25T02:06:53.991Z,31.70
2023-03-25T02:09:22.266Z,27.93
2023-03-25T02:11:49.633Z,37.33
2023-03-25T02:14:19.542Z,35.07
2023-03-25T02:16:53.915Z,27.00
2023-03-25T02:19:40.880Z,25.77
2023-03-25T02:22:14.760Z,29.67
2023-03-25T02:24:45.899Z,33.00
2023-03-25T02:27:17.306Z,29.73
2023-03-25T02:29:53.952Z,33.80
2023-03-25T02:32:30.498Z,24.53
2023-03-25T02:35:06.031Z,28.23
2023-03-25T02:37:33.609Z,27.70
2023-03-25T02:40:07.065Z,31.70
2023-03-25T02:42:34.209Z,32.83
2023-03-25T02:45:08.725Z,35.73
2023-03-25T02:47:37.314Z,30.00
2023-03-25T02:50:07.687Z,28.07
2023-03-25T02:52:38.118Z,33.33
2023-03-25T02:55:10.313Z,25.87
2023-03-25T02:57:39.690Z,33.63
2023-03-25T03:00:16.396Z,35.30
2023-03-25T03:02:53.365Z,30.07
2023-03-25T03:05:25.003Z,32.73
2023-03-25T03:07:55.984Z,32.83
2023-03-25T03:10:27.665Z,31.03
2023-03-25T03:12:54.925Z,27.87
2023-03-25T03:15:24.828Z,28.73
2023-03-25T03:17:58.529Z,30.30
2023-03-25T03:20:35.371Z,38.43
2023-03-25T03:23:20.981Z,28.87
2023-03-25T03:25:49.298Z,35.07
2023-03-25T03:28:22.597Z,35.23
2023-03-25T03:30:54.304Z,31.00
2023-03-25T03:33:31.608Z,23.97
2023-03-25T03:36:04.557Z,36.40
2023-03-25T03:38:35.193Z,28.17
2023-03-25T03:41:07.321Z,28.17
2023-03-25T03:43:38.073Z,32.50
2023-03-25T03:46:15.848Z,34.40
2023-03-25T03:48:45.852Z,28.70
2023-03-25T03:51:18.615Z,35.33
2023-03-25T03:53:52.594Z,32.87
2023-03-25T03:56:23.591Z,32.87
2023-03-25T03:58:54.435Z,39.40
2023-03-25T04:01:30.676Z,33.13
2023-03-25T04:04:01.046Z,35.23
2023-03-25T04:06:35.415Z,40.27
2023-03-25T04:09:18.401Z,33.90
2023-03-25T04:11:49.252Z,29.03
2023-03-25T04:14:16.462Z,37.20
2023-03-25T04:16:45.698Z,30.93
2023-03-25T04:19:19.114Z,35.30
2023-03-25T04:21:47.947Z,37.77
2023-03-25T04:24:16.797Z,29.70
2023-03-25T04:26:44.906Z,32.20
2023-03-25T04:29:13.836Z,30.03
2023-03-25T04:31:50.452Z,36.13
2023-03-25T04:34:20.399Z,37.67
2023-03-25T04:36:50.297Z,22.77
2023-03-25T04:39:18.442Z,32.67
2023-03-25T04:41:45.554Z,24.67
2023-03-25T04:44:12.764Z,32.17
2023-03-25T04:46:41.307Z,27.77
2023-03-25T04:49:14.221Z,34.83
2023-03-25T04:51:42.001Z,32.03
2023-03-25T04:54:09.144Z,29.47
2023-03-25T04:56:36.771Z,31.27
2023-03-25T04:59:04.327Z,35.20
2023-03-25T05:01:31.565Z,26.90
2023-03-25T05:04:05.680Z,35.40
2023-03-25T05:06:40.562Z,29.73
2023-03-25T05:09:09.597Z,31.37
2023-03-25T05:11:37.856Z,29.00
2023-03-25T05:14:05.032Z,24.37
2023-03-25T05:16:32.365Z,28.00
2023-03-25T05:18:59.515Z,32.60
2023-03-25T05:21:27.309Z,29.80
2023-03-25T05:23:54.421Z,30.70
2023-03-25T05:26:21.570Z,29.70
2023-03-25T05:28:51.458Z,31.23
2023-03-25T05:31:19.088Z,28.87
2023-03-25T05:33:46.249Z,29.47
2023-03-25T05:36:14.091Z,28.70
2023-03-25T05:38:44.610Z,27.10
2023-03-25T05:41:16.394Z,25.67
2023-03-25T05:43:47.501Z,29.23
2023-03-25T05:46:15.385Z,29.40
2023-03-25T05:48:42.895Z,35.63
2023-03-25T05:51:17.755Z,31.73
2023-03-25T05:53:50.004Z,31.77
2023-03-25T05:56:21.054Z,29.10
2023-03-25T05:58:48.841Z,32.03
2023-03-25T06:01:31.162Z,31.43
2023-03-25T06:04:03.470Z,36.00
2023-03-25T06:06:32.208Z,31.20
2023-03-25T06:08:59.862Z,31.50
2023-03-25T06:11:27.105Z,28.60
2023-03-25T06:13:54.293Z,37.83
2023-03-25T06:16:22.800Z,31.10
2023-03-25T06:18:51.438Z,35.57
2023-03-25T06:21:22.715Z,26.87
2023-03-25T06:23:50.465Z,28.30
2023-03-25T06:26:17.885Z,32.37
2023-03-25T06:28:46.047Z,34.27
2023-03-25T06:31:17.545Z,25.67
2023-03-25T06:33:45.302Z,32.13
2023-03-25T06:36:13.487Z,29.83
2023-03-25T06:38:40.714Z,27.33
2023-03-25T06:41:07.901Z,27.73
2023-03-25T06:43:35.576Z,34.43
2023-03-25T06:46:02.833Z,23.90
2023-03-25T06:48:30.395Z,29.13
2023-03-25T06:50:57.643Z,29.47
2023-03-25T06:53:25.041Z,24.80
2023-03-25T06:55:52.432Z,29.80
2023-03-25T06:58:19.805Z,33.50
2023-03-25T07:00:47.000Z,27.70
2023-03-25T07:03:14.241Z,26.60
2023-03-25T07:05:43.138Z,29.47
2023-03-25T07:08:10.525Z,37.00
2023-03-25T07:10:37.658Z,29.03
2023-03-25T07:13:04.821Z,33.90
2023-03-25T07:15:31.971Z,31.87
2023-03-25T07:17:59.218Z,28.47
2023-03-25T07:20:26.434Z,27.90
2023-03-25T07:22:55.192Z,26.70
2023-03-25T07:25:22.658Z,27.90
2023-03-25T07:27:49.974Z,25.80
2023-03-25T07:30:17.298Z,33.37
2023-03-25T07:32:45.549Z,24.03
2023-03-25T07:35:12.829Z,28.70
2023-03-25T07:37:39.949Z,27.50
2023-03-25T07:40:07.501Z,27.97
2023-03-25T07:42:36.781Z,26.90
2023-03-25T07:45:04.355Z,19.30
2023-03-25T07:47:31.577Z,23.23
2023-03-25T07:49:58.734Z,25.73
2023-03-25T07:52:25.851Z,23.97
2023-03-25T07:54:52.981Z,33.03
2023-03-25T07:57:20.312Z,26.63
2023-03-25T07:59:47.483Z,25.43
2023-03-25T08:02:15.301Z,24.67
2023-03-25T08:04:42.542Z,32.20
2023-03-25T08:07:09.692Z,25.77
2023-03-25T08:09:36.819Z,28.00
2023-03-25T08:12:04.031Z,23.93
2023-03-25T08:14:31.173Z,32.10
2023-03-25T08:16:58.393Z,25.77
2023-03-25T08:19:25.679Z,24.17
2023-03-25T08:21:52.829Z,36.23
2023-03-25T08:24:19.990Z,25.17
2023-03-25T08:26:47.132Z,28.13
2023-03-25T08:29:17.426Z,159.33
2023-03-25T08:31:46.694Z,34.17
2023-03-25T08:34:14.803Z,26.20
2023-03-25T08:36:41.920Z,35.33
2023-03-25T08:39:11.694Z,40.13
2023-03-25T08:41:39.842Z,26.60
2023-03-25T08:44:07.936Z,25.33
2023-03-25T08:46:35.200Z,22.20
2023-03-25T08:49:02.445Z,18.57
2023-03-25T08:51:29.624Z,25.03
2023-03-25T08:53:56.808Z,30.60
2023-03-25T08:56:23.926Z,29.67
2023-03-25T08:58:51.045Z,24.53
2023-03-25T09:01:18.195Z,24.50
2023-03-25T09:03:46.685Z,19.97
2023-03-25T09:06:13.833Z,21.53
2023-03-25T09:08:41.180Z,24.70
2023-03-25T09:11:08.376Z,31.37
2023-03-25T09:13:35.744Z,30.10
2023-03-25T09:16:03.509Z,25.07
2023-03-25T09:18:32.015Z,34.67
2023-03-25T09:20:59.947Z,25.70
2023-03-25T09:23:27.392Z,28.07
2023-03-25T09:25:54.602Z,23.37
2023-03-25T09:28:21.785Z,28.97
2023-03-25T09:30:48.917Z,27.37
2023-03-25T09:33:16.463Z,32.57
2023-03-25T09:35:43.694Z,27.83
2023-03-25T09:38:10.968Z,28.43
2023-03-25T09:40:38.945Z,35.70
2023-03-25T09:43:25.920Z,26.93
2023-03-25T09:45:53.387Z,32.23
2023-03-25T09:48:20.589Z,28.00
2023-03-25T09:50:48.409Z,30.23
2023-03-25T09:53:24.613Z,26.53
2023-03-25T09:55:52.688Z,25.70
2023-03-25T09:58:22.818Z,22.97
2023-03-25T10:00:52.893Z,23.13
2023-03-25T10:03:27.037Z,31.13
2023-03-25T10:05:54.140Z,24.63
2023-03-25T10:08:29.138Z,26.73
2023-03-25T10:11:28.723Z,25.93
2023-03-25T10:14:01.575Z,26.27
2023-03-25T10:16:55.304Z,24.00
2023-03-25T10:19:31.350Z,28.83
2023-03-25T10:22:05.251Z,28.70
2023-03-25T10:24:35.546Z,25.13
2023-03-25T10:27:05.782Z,25.27
2023-03-25T10:29:37.541Z,25.03
2023-03-25T10:32:08.605Z,27.67
2023-03-25T10:34:42.626Z,30.37
2023-03-25T10:37:13.024Z,25.97
2023-03-25T10:39:45.256Z,27.83
2023-03-25T10:42:20.284Z,22.03
2023-03-25T10:44:47.901Z,21.30
2023-03-25T10:47:17.930Z,22.40
2023-03-25T10:49:46.613Z,25.27
2023-03-25T10:52:13.872Z,25.00
2023-03-25T10:54:42.888Z,22.00
2023-03-25T10:57:11.573Z,21.10
2023-03-25T10:59:47.285Z,24.20
2023-03-25T11:02:16.281Z,22.93
2023-03-25T11:04:44.337Z,24.77
2023-03-25T11:07:17.664Z,25.17
2023-03-25T11:09:44.900Z,20.70
2023-03-25T11:12:12.054Z,23.17
2023-03-25T11:14:40.218Z,22.37
2023-03-25T11:17:16.746Z,24.53
2023-03-25T11:19:44.031Z,21.33
2023-03-25T11:22:22.714Z,23.07
2023-03-25T11:24:51.105Z,29.30
2023-03-25T11:27:28.552Z,25.47
2023-03-25T11:30:00.650Z,24.67
2023-03-25T11:32:35.317Z,23.40
2023-03-25T11:35:07.236Z,26.57
2023-03-25T11:37:37.974Z,24.83
2023-03-25T11:40:13.903Z,23.03
2023-03-25T11:42:49.571Z,22.33
2023-03-25T11:45:20.791Z,29.00
2023-03-25T11:47:48.371Z,24.53
2023-03-25T11:50:23.755Z,16.63
2023-03-25T11:52:53.470Z,20.23
2023-03-25T11:55:23.492Z,20.13
2023-03-25T11:57:51.185Z,16.73
2023-03-25T12:00:28.319Z,17.43
2023-03-25T12:03:02.139Z,16.00
2023-03-25T12:05:29.831Z,17.73
2023-03-25T12:08:05.799Z,24.27
2023-03-25T12:10:32.895Z,18.40
2023-03-25T12:13:08.119Z,18.73
2023-03-25T12:15:40.764Z,17.07
2023-03-25T12:18:17.798Z,17.53
2023-03-25T12:20:54.135Z,17.30
2023-03-25T12:23:39.811Z,18.13
2023-03-25T12:26:07.107Z,13.90
2023-03-25T12:28:34.303Z,16.40
2023-03-25T12:31:04.613Z,13.97
2023-03-25T12:33:48.008Z,20.20
2023-03-25T12:36:38.772Z,16.50
2023-03-25T12:39:12.318Z,19.73
2023-03-25T12:41:54.766Z,19.60
2023-03-25T12:44:21.901Z,20.27
2023-03-25T12:46:52.134Z,16.90
2023-03-25T12:49:19.251Z,18.37
2023-03-25T12:51:49.470Z,21.57
2023-03-25T12:54:32.356Z,23.07
2023-03-25T12:57:02.533Z,18.70
2023-03-25T12:59:41.703Z,19.53
2023-03-25T13:02:31.134Z,20.27
2023-03-25T13:04:58.259Z,22.13
2023-03-25T13:07:32.527Z,20.70
2023-03-25T13:10:05.415Z,22.53
2023-03-25T13:12:42.736Z,22.03
2023-03-25T13:15:26.373Z,28.10
2023-03-25T13:18:03.991Z,23.47
2023-03-25T13:20:33.565Z,27.43
2023-03-25T13:23:03.898Z,29.90
2023-03-25T13:25:49.682Z,17.33
2023-03-25T13:28:20.268Z,29.13
2023-03-25T13:30:47.917Z,24.93
2023-03-25T13:33:20.684Z,20.63
2023-03-25T13:36:03.765Z,29.00
2023-03-25T13:38:35.621Z,20.27
2023-03-25T13:41:10.007Z,31.53
2023-03-25T13:43:42.885Z,24.80
2023-03-25T13:46:11.714Z,24.27
2023-03-25T13:48:42.201Z,21.33
2023-03-25T13:51:09.783Z,23.90
2023-03-25T13:53:40.097Z,28.23
2023-03-25T13:56:07.212Z,22.40
2023-03-25T13:58:34.318Z,28.13
2023-03-25T14:01:09.309Z,19.23
2023-03-25T14:03:55.082Z,24.07
2023-03-25T14:06:50.895Z,21.17
2023-03-25T14:09:30.392Z,22.87
2023-03-25T14:12:00.556Z,22.97
2023-03-25T14:14:28.054Z,24.37
2023-03-25T14:16:58.336Z,23.23
2023-03-25T14:19:32.653Z,22.03
2023-03-25T14:21:59.910Z,19.83
2023-03-25T14:24:30.021Z,26.30
2023-03-25T14:27:01.090Z,21.37
2023-03-25T14:29:40.339Z,23.60
2023-03-25T14:32:27.461Z,23.63
2023-03-25T14:35:00.568Z,24.93
2023-03-25T14:37:29.543Z,19.33
2023-03-25T14:40:01.986Z,24.97
2023-03-25T14:42:43.230Z,26.80
2023-03-25T14:45:29.829Z,23.43
2023-03-25T14:47:57.681Z,21.77
2023-03-25T14:50:25.070Z,23.13
2023-03-25T14:52:57.127Z,25.57
2023-03-25T14:55:32.034Z,23.47
2023-03-25T14:58:01.796Z,23.10
2023-03-25T15:00:34.460Z,23.10
2023-03-25T15:03:22.238Z,18.27
2023-03-25T15:05:59.531Z,17.70
2023-03-25T15:08:33.424Z,17.13
2023-03-25T15:11:05.956Z,18.93
2023-03-25T15:13:37.900Z,18.57
2023-03-25T15:16:06.841Z,13.37
2023-03-25T15:18:37.322Z,12.23
2023-03-25T15:21:10.855Z,6.70
2023-03-25T15:23:50.385Z,7.67
2023-03-25T15:26:35.409Z,6.80
2023-03-25T15:29:05.376Z,5.23
2023-03-25T15:31:40.932Z,5.67
2023-03-25T15:34:27.150Z,6.83
2023-03-25T15:37:17.567Z,3.57
2023-03-25T15:39:48.532Z,4.10
2023-03-25T15:42:48.065Z,3.50
2023-03-25T15:45:18.388Z,4.07
2023-03-25T15:48:12.374Z,2.73
2023-03-25T15:50:42.476Z,2.77
2023-03-25T15:53:12.402Z,3.20
2023-03-25T15:56:02.618Z,3.77
2023-03-25T15:58:39.874Z,1.90
2023-03-25T16:01:13.776Z,2.93
2023-03-25T16:03:41.960Z,3.40
2023-03-25T16:06:13.066Z,2.97
2023-03-25T16:08:41.463Z,2.90
2023-03-25T16:11:28.314Z,2.93
2023-03-25T16:14:03.315Z,3.40
2023-03-25T16:19:01.735Z,2.20
2023-03-25T16:21:30.801Z,3.20
2023-03-25T16:24:00.372Z,3.50
2023-03-25T16:26:47.989Z,1.60
2023-03-25T16:29:16.563Z,1.57
2023-03-25T16:31:52.006Z,2.47
2023-03-25T16:34:19.520Z,3.33
2023-03-25T16:36:47.899Z,3.00
2023-03-25T16:39:15.775Z,2.77
2023-03-25T16:41:53.301Z,4.00
2023-03-25T16:44:22.768Z,2.47
2023-03-25T16:46:51.362Z,2.17
2023-03-25T16:49:37.443Z,1.43
2023-03-25T16:52:08.184Z,2.50
2023-03-25T16:54:37.570Z,3.87
2023-03-25T16:57:08.293Z,2.60
2023-03-25T16:59:37.379Z,2.47
2023-03-25T17:02:05.662Z,3.90
2023-03-25T17:04:39.193Z,3.07
2023-03-25T17:07:09.621Z,3.03
2023-03-25T17:09:40.170Z,3.30
2023-03-25T17:12:08.415Z,2.07
2023-03-25T17:14:39.979Z,3.70
2023-03-25T17:17:30.204Z,4.07
2023-03-25T17:20:01.720Z,2.50
2023-03-25T17:22:39.622Z,2.60
2023-03-25T17:25:24.957Z,2.60
2023-03-25T17:27:55.164Z,3.90
2023-03-25T17:30:33.926Z,2.50
2023-03-25T17:33:10.462Z,2.00
2023-03-25T17:35:38.887Z,3.10
2023-03-25T17:38:08.250Z,2.30
2023-03-25T17:40:35.487Z,1.97
2023-03-25T17:43:02.784Z,3.70
2023-03-25T17:45:30.012Z,3.33
2023-03-25T17:47:57.195Z,2.60
2023-03-25T17:50:25.731Z,2.80
2023-03-25T17:52:52.957Z,1.93
2023-03-25T17:55:20.488Z,1.40
2023-03-25T17:57:49.739Z,1.73
2023-03-25T18:00:18.673Z,2.50
2023-03-25T18:02:46.617Z,2.63
2023-03-25T18:05:14.749Z,3.93
2023-03-25T18:07:41.946Z,8.80
2023-03-25T18:10:17.348Z,14.30
2023-03-25T18:12:44.702Z,12.20
2023-03-25T18:15:12.011Z,11.87
2023-03-25T18:17:39.529Z,8.40
2023-03-25T18:20:17.431Z,8.33
2023-03-25T18:22:44.952Z,9.23
2023-03-25T18:25:12.338Z,10.93
2023-03-25T18:27:43.760Z,9.77
2023-03-25T18:30:17.650Z,8.47
2023-03-25T18:32:44.882Z,6.50
2023-03-25T18:35:12.384Z,6.63
2023-03-25T18:37:41.585Z,5.10
2023-03-25T18:40:17.334Z,5.63
2023-03-25T18:42:44.515Z,4.70
2023-03-25T18:45:12.554Z,7.57
2023-03-25T18:47:39.774Z,5.57
2023-03-25T18:50:17.219Z,5.07
2023-03-25T18:52:44.519Z,6.60
2023-03-25T18:55:12.626Z,5.80
2023-03-25T18:57:40.348Z,7.70
2023-03-25T19:00:14.220Z,8.00
2023-03-25T19:02:41.428Z,6.83
2023-03-25T19:05:08.712Z,6.20
2023-03-25T19:07:35.849Z,6.77
2023-03-25T19:10:03.052Z,6.97
2023-03-25T19:12:30.241Z,6.70
2023-03-25T19:14:57.400Z,7.30
2023-03-25T19:17:24.596Z,6.90
2023-03-25T19:19:51.891Z,7.80
2023-03-25T19:22:19.027Z,6.70
2023-03-25T19:24:46.868Z,8.03
2023-03-25T19:27:14.002Z,6.90
2023-03-25T19:29:41.150Z,6.40
2023-03-25T19:32:08.309Z,7.10
2023-03-25T19:34:35.415Z,6.50
2023-03-25T19:37:02.731Z,6.53
2023-03-25T19:39:30.098Z,6.90
2023-03-25T19:41:57.622Z,8.30
2023-03-25T19:44:24.778Z,7.57
2023-03-25T19:46:51.903Z,7.33
2023-03-25T19:49:32.639Z,8.23
2023-03-25T19:52:06.431Z,9.30
2023-03-25T19:54:33.624Z,7.93
2023-03-25T19:57:01.011Z,6.93
2023-03-25T19:59:28.338Z,7.60
2023-03-25T20:01:55.571Z,7.37
2023-03-25T20:04:22.750Z,6.83
2023-03-25T20:06:49.938Z,5.43
2023-03-25T20:09:17.073Z,5.70
2023-03-25T20:11:44.730Z,5.27
2023-03-25T20:14:11.865Z,4.70
2023-03-25T20:16:39.088Z,5.00
2023-03-25T20:19:17.248Z,4.37
2023-03-25T20:21:44.561Z,4.00
2023-03-25T20:24:11.776Z,4.10
2023-03-25T20:26:38.914Z,3.83
2023-03-25T20:29:06.030Z,4.47
2023-03-25T20:31:34.065Z,3.03
2023-03-25T20:34:01.480Z,4.40
2023-03-25T20:36:28.623Z,3.83
2023-03-25T20:38:58.016Z,4.13
2023-03-25T20:41:25.991Z,5.20
2023-03-25T20:43:53.266Z,2.80
2023-03-25T20:46:23.948Z,3.80
2023-03-25T20:48:51.166Z,3.23
2023-03-25T20:51:18.325Z,2.90
2023-03-25T20:53:46.273Z,3.67
2023-03-25T20:56:13.386Z,3.07
2023-03-25T20:58:40.515Z,4.53
2023-03-25T21:01:07.865Z,2.77
2023-03-25T21:03:35.081Z,3.07
2023-03-25T21:06:10.407Z,2.57
2023-03-25T21:08:48.232Z,2.80
2023-03-25T21:11:16.106Z,1.77
2023-03-25T21:13:43.312Z,2.17
2023-03-25T21:16:11.067Z,2.40
2023-03-25T21:18:38.456Z,3.70
2023-03-25T21:21:05.706Z,2.77
2023-03-25T21:23:32.951Z,2.87
2023-03-25T21:26:01.109Z,3.57
2023-03-25T21:28:29.130Z,3.90
2023-03-25T21:31:00.549Z,3.90
2023-03-25T21:33:27.688Z,4.63
2023-03-25T21:35:55.182Z,3.77
2023-03-25T21:38:29.378Z,4.47
2023-03-25T21:40:57.587Z,4.63
2023-03-25T21:43:25.076Z,3.93
2023-03-25T21:45:52.652Z,3.87
2023-03-25T21:48:21.477Z,4.50
2023-03-25T21:50:51.799Z,3.37
2023-03-25T21:53:22.018Z,4.87
2023-03-25T21:56:00.045Z,5.63
2023-03-25T21:58:28.333Z,5.20
2023-03-25T22:01:01.856Z,5.00
2023-03-25T22:03:30.270Z,3.67
2023-03-25T22:05:57.644Z,5.17
2023-03-25T22:08:25.270Z,4.47
2023-03-25T22:10:52.386Z,7.17
2023-03-25T22:13:19.502Z,4.23
2023-03-25T22:15:46.697Z,4.77
2023-03-25T22:18:13.848Z,6.00
2023-03-25T22:20:41.213Z,4.43
2023-03-25T22:23:10.451Z,4.90
2023-03-25T22:25:37.574Z,4.60
2023-03-25T22:28:04.811Z,4.90
2023-03-25T22:30:32.035Z,3.90
2023-03-25T22:32:59.204Z,3.90
2023-03-25T22:35:28.709Z,4.03
2023-03-25T22:37:58.845Z,2.53
2023-03-25T22:40:27.091Z,3.27
2023-03-25T22:42:54.344Z,4.87
2023-03-25T22:45:21.488Z,4.53
2023-03-25T22:47:48.652Z,3.57
2023-03-25T22:50:15.860Z,3.50
2023-03-25T22:52:42.997Z,3.40
2023-03-25T22:55:10.987Z,3.47
2023-03-25T22:57:38.136Z,3.30
2023-03-25T23:00:12.867Z,3.97
2023-03-25T23:02:40.228Z,5.23
2023-03-25T23:05:08.321Z,4.20
2023-03-25T23:07:35.603Z,4.00
2023-03-25T23:10:02.863Z,3.67
2023-03-25T23:12:30.239Z,3.47
2023-03-25T23:14:58.120Z,2.90
2023-03-25T23:17:25.925Z,4.57
2023-03-25T23:19:53.322Z,2.97
2023-03-25T23:22:21.319Z,3.57
2023-03-25T23:24:48.518Z,3.23
2023-03-25T23:27:15.679Z,2.83
2023-03-25T23:29:42.981Z,2.37
2023-03-25T23:32:10.134Z,3.03
2023-03-25T23:34:38.524Z,3.57
2023-03-25T23:37:07.635Z,3.53
2023-03-25T23:39:34.888Z,2.73
2023-03-25T23:42:02.080Z,2.37
2023-03-25T23:44:29.313Z,2.60
2023-03-25T23:46:56.556Z,2.50
2023-03-25T23:49:23.845Z,3.07
2023-03-25T23:51:51.285Z,3.27
2023-03-25T23:54:18.590Z,2.40
2023-03-25T23:56:46.245Z,1.97
2023-03-25T23:59:13.570Z,3.13
